sensor_id;sensor_type;location;lat;lon;timestamp;temperature;humidity
80176;DHT22;69501;42.124;24.722;2023-06-19T00:01:29;23.10;54.70
80176;DHT22;69501;42.124;24.722;2023-06-19T00:03:55;23.10;55.10
80176;DHT22;69501;42.124;24.722;2023-06-19T00:06:21;23.20;54.80
80176;DHT22;69501;42.124;24.722;2023-06-19T00:08:46;23.30;53.60
80176;DHT22;69501;42.124;24.722;2023-06-19T00:11:12;23.30;54.00
80176;DHT22;69501;42.124;24.722;2023-06-19T00:13:38;23.30;53.90
80176;DHT22;69501;42.124;24.722;2023-06-19T00:16:03;23.20;53.30
80176;DHT22;69501;42.124;24.722;2023-06-19T00:18:30;23.20;54.30
80176;DHT22;69501;42.124;24.722;2023-06-19T00:20:55;23.30;54.10
80176;DHT22;69501;42.124;24.722;2023-06-19T00:23:24;23.30;53.60
80176;DHT22;69501;42.124;24.722;2023-06-19T00:25:50;23.30;53.40
80176;DHT22;69501;42.124;24.722;2023-06-19T00:28:16;23.40;54.10
80176;DHT22;69501;42.124;24.722;2023-06-19T00:30:45;23.50;53.80
80176;DHT22;69501;42.124;24.722;2023-06-19T00:33:10;23.50;53.20
80176;DHT22;69501;42.124;24.722;2023-06-19T00:35:36;23.50;53.30
80176;DHT22;69501;42.124;24.722;2023-06-19T00:38:02;23.60;53.40
80176;DHT22;69501;42.124;24.722;2023-06-19T00:40:30;23.50;52.90
80176;DHT22;69501;42.124;24.722;2023-06-19T00:42:56;23.50;53.20
80176;DHT22;69501;42.124;24.722;2023-06-19T00:45:22;23.50;53.00
80176;DHT22;69501;42.124;24.722;2023-06-19T00:47:50;23.50;52.90
80176;DHT22;69501;42.124;24.722;2023-06-19T00:50:16;23.50;53.10
80176;DHT22;69501;42.124;24.722;2023-06-19T00:52:43;23.60;53.50
80176;DHT22;69501;42.124;24.722;2023-06-19T00:55:09;23.50;52.30
80176;DHT22;69501;42.124;24.722;2023-06-19T00:57:36;23.50;53.20
80176;DHT22;69501;42.124;24.722;2023-06-19T01:00:02;23.60;53.20
80176;DHT22;69501;42.124;24.722;2023-06-19T01:02:34;23.60;52.30
80176;DHT22;69501;42.124;24.722;2023-06-19T01:05:00;23.50;52.50
80176;DHT22;69501;42.124;24.722;2023-06-19T01:10:04;23.40;52.30
80176;DHT22;69501;42.124;24.722;2023-06-19T01:12:38;23.30;52.80
80176;DHT22;69501;42.124;24.722;2023-06-19T01:15:07;23.20;52.50
80176;DHT22;69501;42.124;24.722;2023-06-19T01:17:33;23.20;52.70
80176;DHT22;69501;42.124;24.722;2023-06-19T01:20:01;23.10;52.70
80176;DHT22;69501;42.124;24.722;2023-06-19T01:22:31;23.20;52.80
80176;DHT22;69501;42.124;24.722;2023-06-19T01:24:57;23.10;52.70
80176;DHT22;69501;42.124;24.722;2023-06-19T01:27:24;23.20;53.50
80176;DHT22;69501;42.124;24.722;2023-06-19T01:29:51;23.10;53.00
80176;DHT22;69501;42.124;24.722;2023-06-19T01:32:24;23.10;52.60
80176;DHT22;69501;42.124;24.722;2023-06-19T01:34:52;23.10;53.00
80176;DHT22;69501;42.124;24.722;2023-06-19T01:37:19;23.20;53.50
80176;DHT22;69501;42.124;24.722;2023-06-19T01:39:46;23.30;52.40
80176;DHT22;69501;42.124;24.722;2023-06-19T01:42:13;23.20;52.20
80176;DHT22;69501;42.124;24.722;2023-06-19T01:44:40;23.20;53.20
80176;DHT22;69501;42.124;24.722;2023-06-19T01:47:10;23.20;52.70
80176;DHT22;69501;42.124;24.722;2023-06-19T01:49:37;23.40;52.90
80176;DHT22;69501;42.124;24.722;2023-06-19T01:52:03;23.50;52.60
80176;DHT22;69501;42.124;24.722;2023-06-19T01:54:29;23.50;51.90
80176;DHT22;69501;42.124;24.722;2023-06-19T01:56:55;23.50;51.20
80176;DHT22;69501;42.124;24.722;2023-06-19T01:59:21;23.40;52.20
80176;DHT22;69501;42.124;24.722;2023-06-19T02:01:47;23.50;52.20
80176;DHT22;69501;42.124;24.722;2023-06-19T02:04:13;23.50;51.50
80176;DHT22;69501;42.124;24.722;2023-06-19T02:06:38;23.50;51.40
80176;DHT22;69501;42.124;24.722;2023-06-19T02:09:04;23.50;51.00
80176;DHT22;69501;42.124;24.722;2023-06-19T02:11:30;23.30;51.70
80176;DHT22;69501;42.124;24.722;2023-06-19T02:13:55;23.30;51.40
80176;DHT22;69501;42.124;24.722;2023-06-19T02:16:21;23.40;52.20
80176;DHT22;69501;42.124;24.722;2023-06-19T02:18:46;23.40;51.80
80176;DHT22;69501;42.124;24.722;2023-06-19T02:21:12;23.30;51.20
80176;DHT22;69501;42.124;24.722;2023-06-19T02:23:38;23.30;51.70
80176;DHT22;69501;42.124;24.722;2023-06-19T02:26:03;23.30;50.90
80176;DHT22;69501;42.124;24.722;2023-06-19T02:28:29;23.30;50.90
80176;DHT22;69501;42.124;24.722;2023-06-19T02:30:54;23.20;51.40
80176;DHT22;69501;42.124;24.722;2023-06-19T02:33:20;23.30;51.70
80176;DHT22;69501;42.124;24.722;2023-06-19T02:35:46;23.30;51.30
80176;DHT22;69501;42.124;24.722;2023-06-19T02:38:11;23.30;51.40
80176;DHT22;69501;42.124;24.722;2023-06-19T02:40:40;23.40;51.20
80176;DHT22;69501;42.124;24.722;2023-06-19T02:43:06;23.50;51.70
80176;DHT22;69501;42.124;24.722;2023-06-19T02:45:31;23.50;50.40
80176;DHT22;69501;42.124;24.722;2023-06-19T02:47:57;23.50;50.50
80176;DHT22;69501;42.124;24.722;2023-06-19T02:50:23;23.50;50.60
80176;DHT22;69501;42.124;24.722;2023-06-19T02:52:48;23.30;51.10
80176;DHT22;69501;42.124;24.722;2023-06-19T02:55:14;23.30;50.90
80176;DHT22;69501;42.124;24.722;2023-06-19T02:57:40;23.30;50.90
80176;DHT22;69501;42.124;24.722;2023-06-19T03:00:06;23.40;50.10
80176;DHT22;69501;42.124;24.722;2023-06-19T03:02:32;23.40;51.10
80176;DHT22;69501;42.124;24.722;2023-06-19T03:04:57;23.40;51.00
80176;DHT22;69501;42.124;24.722;2023-06-19T03:07:23;23.50;51.20
80176;DHT22;69501;42.124;24.722;2023-06-19T03:09:54;23.70;51.30
80176;DHT22;69501;42.124;24.722;2023-06-19T03:12:19;23.70;50.40
80176;DHT22;69501;42.124;24.722;2023-06-19T03:14:45;23.70;49.60
80176;DHT22;69501;42.124;24.722;2023-06-19T03:17:12;23.60;49.50
80176;DHT22;69501;42.124;24.722;2023-06-19T03:19:37;23.60;50.70
80176;DHT22;69501;42.124;24.722;2023-06-19T03:22:03;23.60;50.60
80176;DHT22;69501;42.124;24.722;2023-06-19T03:24:29;23.50;49.90
80176;DHT22;69501;42.124;24.722;2023-06-19T03:26:54;23.50;51.70
80176;DHT22;69501;42.124;24.722;2023-06-19T03:29:20;23.60;50.70
80176;DHT22;69501;42.124;24.722;2023-06-19T03:31:46;23.80;51.30
80176;DHT22;69501;42.124;24.722;2023-06-19T03:34:12;23.90;51.90
80176;DHT22;69501;42.124;24.722;2023-06-19T03:36:37;24.00;50.30
80176;DHT22;69501;42.124;24.722;2023-06-19T03:39:04;24.10;49.30
80176;DHT22;69501;42.124;24.722;2023-06-19T03:41:29;24.20;50.10
80176;DHT22;69501;42.124;24.722;2023-06-19T03:43:55;24.30;49.40
80176;DHT22;69501;42.124;24.722;2023-06-19T03:46:21;24.30;49.70
80176;DHT22;69501;42.124;24.722;2023-06-19T03:48:46;24.40;48.80
80176;DHT22;69501;42.124;24.722;2023-06-19T03:51:12;24.50;48.50
80176;DHT22;69501;42.124;24.722;2023-06-19T03:53:38;24.40;47.60
80176;DHT22;69501;42.124;24.722;2023-06-19T03:56:03;24.40;49.30
80176;DHT22;69501;42.124;24.722;2023-06-19T03:58:29;24.20;48.10
80176;DHT22;69501;42.124;24.722;2023-06-19T04:00:55;24.10;48.60
80176;DHT22;69501;42.124;24.722;2023-06-19T04:03:20;24.00;49.10
80176;DHT22;69501;42.124;24.722;2023-06-19T04:05:46;23.70;49.30
80176;DHT22;69501;42.124;24.722;2023-06-19T04:08:12;23.60;49.90
80176;DHT22;69501;42.124;24.722;2023-06-19T04:10:37;23.50;50.30
80176;DHT22;69501;42.124;24.722;2023-06-19T04:13:04;23.50;50.70
80176;DHT22;69501;42.124;24.722;2023-06-19T04:15:32;23.50;50.90
80176;DHT22;69501;42.124;24.722;2023-06-19T04:17:58;23.30;51.00
80176;DHT22;69501;42.124;24.722;2023-06-19T04:20:26;23.30;51.50
80176;DHT22;69501;42.124;24.722;2023-06-19T04:22:51;23.20;51.90
80176;DHT22;69501;42.124;24.722;2023-06-19T04:25:17;23.10;51.80
80176;DHT22;69501;42.124;24.722;2023-06-19T04:27:43;23.00;52.00
80176;DHT22;69501;42.124;24.722;2023-06-19T04:30:10;23.10;52.50
80176;DHT22;69501;42.124;24.722;2023-06-19T04:32:36;23.10;52.30
80176;DHT22;69501;42.124;24.722;2023-06-19T04:35:07;23.10;53.20
80176;DHT22;69501;42.124;24.722;2023-06-19T04:37:33;23.20;52.90
80176;DHT22;69501;42.124;24.722;2023-06-19T04:39:58;23.40;52.70
80176;DHT22;69501;42.124;24.722;2023-06-19T04:42:24;23.50;51.70
80176;DHT22;69501;42.124;24.722;2023-06-19T04:44:50;23.60;51.60
80176;DHT22;69501;42.124;24.722;2023-06-19T04:47:18;23.70;50.80
80176;DHT22;69501;42.124;24.722;2023-06-19T04:49:43;23.70;49.90
80176;DHT22;69501;42.124;24.722;2023-06-19T04:52:09;23.70;49.90
80176;DHT22;69501;42.124;24.722;2023-06-19T04:54:37;23.70;50.10
80176;DHT22;69501;42.124;24.722;2023-06-19T04:57:03;23.70;50.30
80176;DHT22;69501;42.124;24.722;2023-06-19T04:59:28;23.80;49.60
80176;DHT22;69501;42.124;24.722;2023-06-19T05:01:56;23.80;49.30
80176;DHT22;69501;42.124;24.722;2023-06-19T05:04:22;23.90;49.70
80176;DHT22;69501;42.124;24.722;2023-06-19T05:06:49;23.90;49.70
80176;DHT22;69501;42.124;24.722;2023-06-19T05:09:14;24.00;49.20
80176;DHT22;69501;42.124;24.722;2023-06-19T05:11:40;24.00;49.30
80176;DHT22;69501;42.124;24.722;2023-06-19T05:14:06;24.00;49.20
80176;DHT22;69501;42.124;24.722;2023-06-19T05:16:33;23.90;49.30
80176;DHT22;69501;42.124;24.722;2023-06-19T05:18:59;24.00;50.70
80176;DHT22;69501;42.124;24.722;2023-06-19T05:21:24;24.20;50.50
80176;DHT22;69501;42.124;24.722;2023-06-19T05:23:50;24.30;49.40
80176;DHT22;69501;42.124;24.722;2023-06-19T05:26:21;24.40;48.40
80176;DHT22;69501;42.124;24.722;2023-06-19T05:28:47;24.20;48.00
80176;DHT22;69501;42.124;24.722;2023-06-19T05:31:13;24.30;49.00
80176;DHT22;69501;42.124;24.722;2023-06-19T05:33:39;24.20;47.90
80176;DHT22;69501;42.124;24.722;2023-06-19T05:36:05;24.20;48.40
80176;DHT22;69501;42.124;24.722;2023-06-19T05:38:31;24.30;49.00
80176;DHT22;69501;42.124;24.722;2023-06-19T05:40:57;24.30;48.30
80176;DHT22;69501;42.124;24.722;2023-06-19T05:43:23;24.20;48.20
80176;DHT22;69501;42.124;24.722;2023-06-19T05:45:50;24.30;48.40
80176;DHT22;69501;42.124;24.722;2023-06-19T05:48:16;24.20;47.20
80176;DHT22;69501;42.124;24.722;2023-06-19T05:50:41;24.20;47.90
80176;DHT22;69501;42.124;24.722;2023-06-19T05:53:07;24.30;48.10
80176;DHT22;69501;42.124;24.722;2023-06-19T05:55:33;24.40;48.10
80176;DHT22;69501;42.124;24.722;2023-06-19T05:57:58;24.40;48.00
80176;DHT22;69501;42.124;24.722;2023-06-19T06:00:24;24.40;47.50
80176;DHT22;69501;42.124;24.722;2023-06-19T06:02:50;24.40;46.90
80176;DHT22;69501;42.124;24.722;2023-06-19T06:05:17;24.40;47.10
80176;DHT22;69501;42.124;24.722;2023-06-19T06:07:44;24.30;46.80
80176;DHT22;69501;42.124;24.722;2023-06-19T06:10:10;24.40;46.70
80176;DHT22;69501;42.124;24.722;2023-06-19T06:12:36;24.40;46.70
80176;DHT22;69501;42.124;24.722;2023-06-19T06:15:05;24.40;46.80
80176;DHT22;69501;42.124;24.722;2023-06-19T06:17:31;24.40;47.10
80176;DHT22;69501;42.124;24.722;2023-06-19T06:19:57;24.40;46.60
80176;DHT22;69501;42.124;24.722;2023-06-19T06:22:23;24.60;45.90
80176;DHT22;69501;42.124;24.722;2023-06-19T06:24:48;24.50;45.40
80176;DHT22;69501;42.124;24.722;2023-06-19T06:27:14;24.50;45.00
80176;DHT22;69501;42.124;24.722;2023-06-19T06:29:40;24.50;44.30
80176;DHT22;69501;42.124;24.722;2023-06-19T06:32:07;24.50;44.20
80176;DHT22;69501;42.124;24.722;2023-06-19T06:34:36;24.50;44.30
80176;DHT22;69501;42.124;24.722;2023-06-19T06:37:02;24.50;44.20
80176;DHT22;69501;42.124;24.722;2023-06-19T06:39:27;24.50;44.30
80176;DHT22;69501;42.124;24.722;2023-06-19T06:41:53;24.60;44.30
80176;DHT22;69501;42.124;24.722;2023-06-19T06:44:19;24.70;44.20
80176;DHT22;69501;42.124;24.722;2023-06-19T06:46:45;24.70;44.50
80176;DHT22;69501;42.124;24.722;2023-06-19T06:49:11;24.80;43.80
80176;DHT22;69501;42.124;24.722;2023-06-19T06:51:37;24.90;43.80
80176;DHT22;69501;42.124;24.722;2023-06-19T06:54:03;25.00;43.50
80176;DHT22;69501;42.124;24.722;2023-06-19T06:56:29;24.90;43.50
80176;DHT22;69501;42.124;24.722;2023-06-19T06:58:54;25.00;43.60
80176;DHT22;69501;42.124;24.722;2023-06-19T07:01:20;25.00;43.30
80176;DHT22;69501;42.124;24.722;2023-06-19T07:03:46;25.10;43.30
80176;DHT22;69501;42.124;24.722;2023-06-19T07:06:11;25.10;42.90
80176;DHT22;69501;42.124;24.722;2023-06-19T07:08:37;25.20;42.90
80176;DHT22;69501;42.124;24.722;2023-06-19T07:11:03;25.20;42.80
80176;DHT22;69501;42.124;24.722;2023-06-19T07:13:29;25.20;42.90
80176;DHT22;69501;42.124;24.722;2023-06-19T07:15:55;25.30;42.80
80176;DHT22;69501;42.124;24.722;2023-06-19T07:18:20;25.30;43.20
80176;DHT22;69501;42.124;24.722;2023-06-19T07:20:46;25.30;42.90
80176;DHT22;69501;42.124;24.722;2023-06-19T07:23:12;25.40;41.90
80176;DHT22;69501;42.124;24.722;2023-06-19T07:25:37;25.40;41.60
80176;DHT22;69501;42.124;24.722;2023-06-19T07:28:03;25.30;41.20
80176;DHT22;69501;42.124;24.722;2023-06-19T07:30:30;25.40;41.90
80176;DHT22;69501;42.124;24.722;2023-06-19T07:32:56;25.40;41.50
80176;DHT22;69501;42.124;24.722;2023-06-19T07:35:21;25.50;41.40
80176;DHT22;69501;42.124;24.722;2023-06-19T07:37:47;25.60;40.90
80176;DHT22;69501;42.124;24.722;2023-06-19T07:40:13;25.60;40.90
80176;DHT22;69501;42.124;24.722;2023-06-19T07:42:38;25.60;40.40
80176;DHT22;69501;42.124;24.722;2023-06-19T07:45:05;25.70;40.30
80176;DHT22;69501;42.124;24.722;2023-06-19T07:47:30;25.70;40.90
80176;DHT22;69501;42.124;24.722;2023-06-19T07:49:56;25.80;41.10
80176;DHT22;69501;42.124;24.722;2023-06-19T07:52:22;25.80;40.20
80176;DHT22;69501;42.124;24.722;2023-06-19T07:54:52;25.90;39.50
80176;DHT22;69501;42.124;24.722;2023-06-19T07:57:18;26.00;39.40
80176;DHT22;69501;42.124;24.722;2023-06-19T07:59:43;26.00;39.70
80176;DHT22;69501;42.124;24.722;2023-06-19T08:02:10;26.10;39.10
80176;DHT22;69501;42.124;24.722;2023-06-19T08:04:36;26.00;39.30
80176;DHT22;69501;42.124;24.722;2023-06-19T08:07:01;26.10;39.60
80176;DHT22;69501;42.124;24.722;2023-06-19T08:09:27;26.10;39.00
80176;DHT22;69501;42.124;24.722;2023-06-19T08:11:53;26.10;38.90
80176;DHT22;69501;42.124;24.722;2023-06-19T08:14:18;26.10;39.60
80176;DHT22;69501;42.124;24.722;2023-06-19T08:16:45;26.10;39.20
80176;DHT22;69501;42.124;24.722;2023-06-19T08:19:10;26.20;39.00
80176;DHT22;69501;42.124;24.722;2023-06-19T08:21:36;26.20;38.80
80176;DHT22;69501;42.124;24.722;2023-06-19T08:24:02;26.20;38.20
80176;DHT22;69501;42.124;24.722;2023-06-19T08:26:28;26.20;37.80
80176;DHT22;69501;42.124;24.722;2023-06-19T08:28:54;26.30;38.20
80176;DHT22;69501;42.124;24.722;2023-06-19T08:31:19;26.40;37.50
80176;DHT22;69501;42.124;24.722;2023-06-19T08:33:47;26.50;37.90
80176;DHT22;69501;42.124;24.722;2023-06-19T08:36:16;26.50;38.10
80176;DHT22;69501;42.124;24.722;2023-06-19T08:38:41;26.60;38.40
80176;DHT22;69501;42.124;24.722;2023-06-19T08:41:07;26.60;36.80
80176;DHT22;69501;42.124;24.722;2023-06-19T08:43:32;26.70;37.30
80176;DHT22;69501;42.124;24.722;2023-06-19T08:46:10;26.70;37.10
80176;DHT22;69501;42.124;24.722;2023-06-19T08:48:37;26.70;37.40
80176;DHT22;69501;42.124;24.722;2023-06-19T08:51:03;26.80;37.70
80176;DHT22;69501;42.124;24.722;2023-06-19T08:53:36;26.90;37.10
80176;DHT22;69501;42.124;24.722;2023-06-19T08:56:08;26.90;36.50
80176;DHT22;69501;42.124;24.722;2023-06-19T08:58:34;26.90;35.90
80176;DHT22;69501;42.124;24.722;2023-06-19T09:01:00;26.90;36.40
80176;DHT22;69501;42.124;24.722;2023-06-19T09:03:26;27.00;36.30
80176;DHT22;69501;42.124;24.722;2023-06-19T09:05:51;27.00;36.40
80176;DHT22;69501;42.124;24.722;2023-06-19T09:08:21;27.00;36.20
80176;DHT22;69501;42.124;24.722;2023-06-19T09:11:00;27.00;36.70
80176;DHT22;69501;42.124;24.722;2023-06-19T09:13:27;27.00;36.40
80176;DHT22;69501;42.124;24.722;2023-06-19T09:16:03;27.10;36.00
80176;DHT22;69501;42.124;24.722;2023-06-19T09:18:31;27.20;35.90
80176;DHT22;69501;42.124;24.722;2023-06-19T09:20:57;27.40;36.50
80176;DHT22;69501;42.124;24.722;2023-06-19T09:23:24;27.50;36.40
80176;DHT22;69501;42.124;24.722;2023-06-19T09:25:53;27.60;35.60
80176;DHT22;69501;42.124;24.722;2023-06-19T09:28:25;27.50;35.70
80176;DHT22;69501;42.124;24.722;2023-06-19T09:30:58;27.50;35.60
80176;DHT22;69501;42.124;24.722;2023-06-19T09:33:34;27.60;35.00
80176;DHT22;69501;42.124;24.722;2023-06-19T09:36:03;27.60;35.20
80176;DHT22;69501;42.124;24.722;2023-06-19T09:38:31;27.60;35.60
80176;DHT22;69501;42.124;24.722;2023-06-19T09:40:59;27.60;35.60
80176;DHT22;69501;42.124;24.722;2023-06-19T09:43:33;27.60;34.70
80176;DHT22;69501;42.124;24.722;2023-06-19T09:46:00;27.70;35.00
80176;DHT22;69501;42.124;24.722;2023-06-19T09:48:30;27.80;35.70
80176;DHT22;69501;42.124;24.722;2023-06-19T09:51:05;27.80;34.90
80176;DHT22;69501;42.124;24.722;2023-06-19T09:53:35;27.90;34.60
80176;DHT22;69501;42.124;24.722;2023-06-19T09:56:01;28.00;34.10
80176;DHT22;69501;42.124;24.722;2023-06-19T09:58:27;28.00;34.10
80176;DHT22;69501;42.124;24.722;2023-06-19T10:00:54;28.10;34.10
80176;DHT22;69501;42.124;24.722;2023-06-19T10:03:20;28.20;34.00
80176;DHT22;69501;42.124;24.722;2023-06-19T10:05:46;28.40;33.00
80176;DHT22;69501;42.124;24.722;2023-06-19T10:08:12;28.50;33.00
80176;DHT22;69501;42.124;24.722;2023-06-19T10:10:47;28.50;32.50
80176;DHT22;69501;42.124;24.722;2023-06-19T10:13:16;28.60;31.90
80176;DHT22;69501;42.124;24.722;2023-06-19T10:15:45;28.70;31.90
80176;DHT22;69501;42.124;24.722;2023-06-19T10:18:16;28.70;32.20
80176;DHT22;69501;42.124;24.722;2023-06-19T10:20:43;28.90;32.60
80176;DHT22;69501;42.124;24.722;2023-06-19T10:23:17;28.90;32.20
80176;DHT22;69501;42.124;24.722;2023-06-19T10:25:45;29.00;32.40
80176;DHT22;69501;42.124;24.722;2023-06-19T10:28:22;29.00;32.20
80176;DHT22;69501;42.124;24.722;2023-06-19T10:31:05;29.00;31.70
80176;DHT22;69501;42.124;24.722;2023-06-19T10:33:36;29.10;32.80
80176;DHT22;69501;42.124;24.722;2023-06-19T10:36:22;29.30;31.10
80176;DHT22;69501;42.124;24.722;2023-06-19T10:38:51;29.30;30.60
80176;DHT22;69501;42.124;24.722;2023-06-19T10:41:21;29.40;30.90
80176;DHT22;69501;42.124;24.722;2023-06-19T10:44:04;29.40;30.70
80176;DHT22;69501;42.124;24.722;2023-06-19T10:46:32;29.50;30.40
80176;DHT22;69501;42.124;24.722;2023-06-19T10:49:02;29.50;30.80
80176;DHT22;69501;42.124;24.722;2023-06-19T10:51:36;29.50;30.00
80176;DHT22;69501;42.124;24.722;2023-06-19T10:54:02;29.60;30.10
80176;DHT22;69501;42.124;24.722;2023-06-19T10:56:28;29.50;30.10
80176;DHT22;69501;42.124;24.722;2023-06-19T10:59:05;29.50;30.40
80176;DHT22;69501;42.124;24.722;2023-06-19T11:01:39;29.50;30.40
80176;DHT22;69501;42.124;24.722;2023-06-19T11:04:09;29.60;29.90
80176;DHT22;69501;42.124;24.722;2023-06-19T11:06:36;29.60;29.70
80176;DHT22;69501;42.124;24.722;2023-06-19T11:09:12;29.70;29.70
80176;DHT22;69501;42.124;24.722;2023-06-19T11:11:43;29.80;29.60
80176;DHT22;69501;42.124;24.722;2023-06-19T11:14:10;29.80;29.70
80176;DHT22;69501;42.124;24.722;2023-06-19T11:16:40;29.90;29.60
80176;DHT22;69501;42.124;24.722;2023-06-19T11:19:08;30.00;29.80
80176;DHT22;69501;42.124;24.722;2023-06-19T11:21:35;30.10;29.80
80176;DHT22;69501;42.124;24.722;2023-06-19T11:24:05;30.10;29.70
80176;DHT22;69501;42.124;24.722;2023-06-19T11:26:41;30.10;29.80
80176;DHT22;69501;42.124;24.722;2023-06-19T11:31:44;30.10;29.70
80176;DHT22;69501;42.124;24.722;2023-06-19T11:34:12;30.10;29.90
80176;DHT22;69501;42.124;24.722;2023-06-19T11:36:38;30.20;30.00
80176;DHT22;69501;42.124;24.722;2023-06-19T11:39:05;30.20;29.30
80176;DHT22;69501;42.124;24.722;2023-06-19T11:41:34;30.20;29.30
80176;DHT22;69501;42.124;24.722;2023-06-19T11:44:04;30.20;29.20
80176;DHT22;69501;42.124;24.722;2023-06-19T11:46:31;30.30;28.90
80176;DHT22;69501;42.124;24.722;2023-06-19T11:49:16;30.30;29.10
80176;DHT22;69501;42.124;24.722;2023-06-19T11:51:44;30.50;28.80
80176;DHT22;69501;42.124;24.722;2023-06-19T11:54:11;30.50;28.60
80176;DHT22;69501;42.124;24.722;2023-06-19T11:56:38;30.50;28.80
80176;DHT22;69501;42.124;24.722;2023-06-19T11:59:05;30.60;28.90
80176;DHT22;69501;42.124;24.722;2023-06-19T12:01:35;30.70;28.80
80176;DHT22;69501;42.124;24.722;2023-06-19T12:04:01;30.70;28.20
80176;DHT22;69501;42.124;24.722;2023-06-19T12:06:28;30.60;28.20
80176;DHT22;69501;42.124;24.722;2023-06-19T12:08:53;30.50;28.80
80176;DHT22;69501;42.124;24.722;2023-06-19T12:11:19;30.50;28.80
80176;DHT22;69501;42.124;24.722;2023-06-19T12:13:45;30.50;28.90
80176;DHT22;69501;42.124;24.722;2023-06-19T12:16:11;30.60;28.90
80176;DHT22;69501;42.124;24.722;2023-06-19T12:18:37;30.70;28.90
80176;DHT22;69501;42.124;24.722;2023-06-19T12:21:03;30.80;28.00
80176;DHT22;69501;42.124;24.722;2023-06-19T12:23:29;30.90;27.50
80176;DHT22;69501;42.124;24.722;2023-06-19T12:25:55;31.10;27.20
80176;DHT22;69501;42.124;24.722;2023-06-19T12:28:20;31.30;26.40
80176;DHT22;69501;42.124;24.722;2023-06-19T12:30:47;31.40;26.40
80176;DHT22;69501;42.124;24.722;2023-06-19T12:33:20;31.40;26.50
80176;DHT22;69501;42.124;24.722;2023-06-19T12:35:46;31.40;25.70
80176;DHT22;69501;42.124;24.722;2023-06-19T12:38:12;31.40;25.60
80176;DHT22;69501;42.124;24.722;2023-06-19T12:40:39;31.40;25.70
80176;DHT22;69501;42.124;24.722;2023-06-19T12:43:04;31.40;25.10
80176;DHT22;69501;42.124;24.722;2023-06-19T12:45:30;31.50;25.50
80176;DHT22;69501;42.124;24.722;2023-06-19T12:47:56;31.50;25.70
80176;DHT22;69501;42.124;24.722;2023-06-19T12:50:21;31.70;25.50
80176;DHT22;69501;42.124;24.722;2023-06-19T12:52:47;31.80;25.40
80176;DHT22;69501;42.124;24.722;2023-06-19T12:55:13;31.80;25.40
80176;DHT22;69501;42.124;24.722;2023-06-19T12:57:39;32.00;25.30
80176;DHT22;69501;42.124;24.722;2023-06-19T13:00:09;32.00;25.10
80176;DHT22;69501;42.124;24.722;2023-06-19T13:02:37;32.10;24.80
80176;DHT22;69501;42.124;24.722;2023-06-19T13:05:03;32.20;24.30
80176;DHT22;69501;42.124;24.722;2023-06-19T13:07:29;32.30;24.20
80176;DHT22;69501;42.124;24.722;2023-06-19T13:09:54;32.10;24.20
80176;DHT22;69501;42.124;24.722;2023-06-19T13:12:22;32.20;24.30
80176;DHT22;69501;42.124;24.722;2023-06-19T13:14:47;32.40;24.10
80176;DHT22;69501;42.124;24.722;2023-06-19T13:17:13;32.50;24.10
80176;DHT22;69501;42.124;24.722;2023-06-19T13:19:40;32.60;24.20
80176;DHT22;69501;42.124;24.722;2023-06-19T13:22:05;32.70;24.00
80176;DHT22;69501;42.124;24.722;2023-06-19T13:24:31;32.90;23.80
80176;DHT22;69501;42.124;24.722;2023-06-19T13:26:57;33.00;23.80
80176;DHT22;69501;42.124;24.722;2023-06-19T13:29:23;33.10;23.50
80176;DHT22;69501;42.124;24.722;2023-06-19T13:31:49;33.00;23.10
80176;DHT22;69501;42.124;24.722;2023-06-19T13:34:15;33.10;23.40
80176;DHT22;69501;42.124;24.722;2023-06-19T13:36:41;33.10;23.00
80176;DHT22;69501;42.124;24.722;2023-06-19T13:39:07;33.10;22.90
80176;DHT22;69501;42.124;24.722;2023-06-19T13:41:32;33.10;22.40
80176;DHT22;69501;42.124;24.722;2023-06-19T13:44:00;33.00;22.90
80176;DHT22;69501;42.124;24.722;2023-06-19T13:46:26;33.00;23.30
80176;DHT22;69501;42.124;24.722;2023-06-19T13:48:52;33.10;23.20
80176;DHT22;69501;42.124;24.722;2023-06-19T13:51:18;33.00;23.20
80176;DHT22;69501;42.124;24.722;2023-06-19T13:53:44;32.90;23.60
80176;DHT22;69501;42.124;24.722;2023-06-19T13:56:11;32.90;23.70
80176;DHT22;69501;42.124;24.722;2023-06-19T13:58:38;33.00;23.90
80176;DHT22;69501;42.124;24.722;2023-06-19T14:01:03;33.00;23.60
80176;DHT22;69501;42.124;24.722;2023-06-19T14:03:29;33.20;23.80
80176;DHT22;69501;42.124;24.722;2023-06-19T14:05:55;33.20;23.70
80176;DHT22;69501;42.124;24.722;2023-06-19T14:08:20;33.30;24.60
80176;DHT22;69501;42.124;24.722;2023-06-19T14:10:46;33.40;25.50
80176;DHT22;69501;42.124;24.722;2023-06-19T14:13:12;33.60;25.70
80176;DHT22;69501;42.124;24.722;2023-06-19T14:15:38;33.70;25.50
80176;DHT22;69501;42.124;24.722;2023-06-19T14:18:03;33.70;25.70
80176;DHT22;69501;42.124;24.722;2023-06-19T14:20:29;33.80;25.90
80176;DHT22;69501;42.124;24.722;2023-06-19T14:22:54;33.90;26.50
80176;DHT22;69501;42.124;24.722;2023-06-19T14:25:20;34.00;24.50
80176;DHT22;69501;42.124;24.722;2023-06-19T14:27:46;34.00;23.80
80176;DHT22;69501;42.124;24.722;2023-06-19T14:30:12;34.00;24.00
80176;DHT22;69501;42.124;24.722;2023-06-19T14:32:37;34.00;24.20
80176;DHT22;69501;42.124;24.722;2023-06-19T14:35:04;33.90;24.90
80176;DHT22;69501;42.124;24.722;2023-06-19T14:37:30;33.90;25.40
80176;DHT22;69501;42.124;24.722;2023-06-19T14:39:56;34.00;25.60
80176;DHT22;69501;42.124;24.722;2023-06-19T14:42:22;34.10;25.60
80176;DHT22;69501;42.124;24.722;2023-06-19T14:44:48;34.20;25.50
80176;DHT22;69501;42.124;24.722;2023-06-19T14:47:14;34.30;25.40
80176;DHT22;69501;42.124;24.722;2023-06-19T14:49:39;34.30;25.30
80176;DHT22;69501;42.124;24.722;2023-06-19T14:52:06;34.30;25.20
80176;DHT22;69501;42.124;24.722;2023-06-19T14:54:31;34.30;25.30
80176;DHT22;69501;42.124;24.722;2023-06-19T14:56:57;34.30;25.10
80176;DHT22;69501;42.124;24.722;2023-06-19T14:59:23;34.40;25.20
80176;DHT22;69501;42.124;24.722;2023-06-19T15:01:49;34.60;25.20
80176;DHT22;69501;42.124;24.722;2023-06-19T15:04:30;34.70;25.00
80176;DHT22;69501;42.124;24.722;2023-06-19T15:06:59;34.80;23.70
80176;DHT22;69501;42.124;24.722;2023-06-19T15:09:26;34.50;23.20
80176;DHT22;69501;42.124;24.722;2023-06-19T15:11:52;34.40;23.30
80176;DHT22;69501;42.124;24.722;2023-06-19T15:14:18;34.40;23.10
80176;DHT22;69501;42.124;24.722;2023-06-19T15:16:45;34.30;23.30
80176;DHT22;69501;42.124;24.722;2023-06-19T15:19:10;34.10;23.30